sensor_id;sensor_type;location;lat;lon;timestamp;temperature;humidity
71367;DHT22;60030;52.274;8.040;2022-08-03T00:00:14;22.80;99.90
71367;DHT22;60030;52.274;8.040;2022-08-03T00:02:42;22.70;99.90
71367;DHT22;60030;52.274;8.040;2022-08-03T00:05:09;22.70;99.90
71367;DHT22;60030;52.274;8.040;2022-08-03T00:07:37;22.70;99.90
71367;DHT22;60030;52.274;8.040;2022-08-03T00:10:06;22.70;99.90
71367;DHT22;60030;52.274;8.040;2022-08-03T00:12:33;22.70;99.90
71367;DHT22;60030;52.274;8.040;2022-08-03T00:15:01;22.60;99.90
71367;DHT22;60030;52.274;8.040;2022-08-03T00:17:28;22.60;99.90
71367;DHT22;60030;52.274;8.040;2022-08-03T00:19:55;22.60;99.90
71367;DHT22;60030;52.274;8.040;2022-08-03T00:22:22;22.60;99.90
71367;DHT22;60030;52.274;8.040;2022-08-03T00:24:51;22.50;99.90
71367;DHT22;60030;52.274;8.040;2022-08-03T00:27:18;22.60;99.90
71367;DHT22;60030;52.274;8.040;2022-08-03T00:29:45;22.50;99.90
71367;DHT22;60030;52.274;8.040;2022-08-03T00:32:12;22.40;99.90
71367;DHT22;60030;52.274;8.040;2022-08-03T00:34:39;22.40;99.90
71367;DHT22;60030;52.274;8.040;2022-08-03T00:37:06;22.40;99.90
71367;DHT22;60030;52.274;8.040;2022-08-03T00:39:33;22.40;99.90
71367;DHT22;60030;52.274;8.040;2022-08-03T00:42:02;22.40;99.90
71367;DHT22;60030;52.274;8.040;2022-08-03T00:44:30;22.40;99.90
71367;DHT22;60030;52.274;8.040;2022-08-03T00:46:57;22.30;99.90
71367;DHT22;60030;52.274;8.040;2022-08-03T00:49:24;22.30;99.90
71367;DHT22;60030;52.274;8.040;2022-08-03T00:51:51;22.30;99.90
71367;DHT22;60030;52.274;8.040;2022-08-03T00:54:19;22.20;99.90
71367;DHT22;60030;52.274;8.040;2022-08-03T00:56:46;22.20;99.90
71367;DHT22;60030;52.274;8.040;2022-08-03T00:59:15;22.20;99.90
71367;DHT22;60030;52.274;8.040;2022-08-03T01:01:44;22.20;99.90
71367;DHT22;60030;52.274;8.040;2022-08-03T01:04:11;22.10;99.90
71367;DHT22;60030;52.274;8.040;2022-08-03T01:06:44;22.10;99.90
71367;DHT22;60030;52.274;8.040;2022-08-03T01:09:18;22.10;99.90
71367;DHT22;60030;52.274;8.040;2022-08-03T01:11:50;22.10;99.90
71367;DHT22;60030;52.274;8.040;2022-08-03T01:14:25;22.00;99.90
71367;DHT22;60030;52.274;8.040;2022-08-03T01:16:56;22.00;99.90
71367;DHT22;60030;52.274;8.040;2022-08-03T01:19:40;22.00;99.90
71367;DHT22;60030;52.274;8.040;2022-08-03T01:22:25;22.00;99.90
71367;DHT22;60030;52.274;8.040;2022-08-03T01:25:04;22.00;99.90
71367;DHT22;60030;52.274;8.040;2022-08-03T01:27:42;21.90;99.90
71367;DHT22;60030;52.274;8.040;2022-08-03T01:30:17;21.90;99.90
71367;DHT22;60030;52.274;8.040;2022-08-03T01:32:51;21.90;99.90
71367;DHT22;60030;52.274;8.040;2022-08-03T01:35:25;21.90;99.90
71367;DHT22;60030;52.274;8.040;2022-08-03T01:37:57;21.80;99.90
71367;DHT22;60030;52.274;8.040;2022-08-03T01:40:26;21.80;99.90
71367;DHT22;60030;52.274;8.040;2022-08-03T01:42:54;21.80;99.90
71367;DHT22;60030;52.274;8.040;2022-08-03T01:45:25;21.80;99.90
71367;DHT22;60030;52.274;8.040;2022-08-03T01:47:54;21.80;99.90
71367;DHT22;60030;52.274;8.040;2022-08-03T01:50:25;21.80;99.90
71367;DHT22;60030;52.274;8.040;2022-08-03T01:52:54;21.80;99.90
71367;DHT22;60030;52.274;8.040;2022-08-03T01:55:22;21.70;99.90
71367;DHT22;60030;52.274;8.040;2022-08-03T01:57:53;21.70;99.90
71367;DHT22;60030;52.274;8.040;2022-08-03T02:00:23;21.70;99.90
71367;DHT22;60030;52.274;8.040;2022-08-03T02:02:51;21.70;99.90
71367;DHT22;60030;52.274;8.040;2022-08-03T02:05:21;21.70;99.90
71367;DHT22;60030;52.274;8.040;2022-08-03T02:07:49;21.60;99.90
71367;DHT22;60030;52.274;8.040;2022-08-03T02:10:18;21.60;99.90
71367;DHT22;60030;52.274;8.040;2022-08-03T02:12:47;21.60;99.90
71367;DHT22;60030;52.274;8.040;2022-08-03T02:15:15;21.60;99.90
71367;DHT22;60030;52.274;8.040;2022-08-03T02:17:46;21.60;99.90
71367;DHT22;60030;52.274;8.040;2022-08-03T02:20:15;21.50;99.90
71367;DHT22;60030;52.274;8.040;2022-08-03T02:22:44;21.40;99.90
71367;DHT22;60030;52.274;8.040;2022-08-03T02:25:13;21.50;99.90
71367;DHT22;60030;52.274;8.040;2022-08-03T02:27:47;21.50;99.90
71367;DHT22;60030;52.274;8.040;2022-08-03T02:30:16;21.50;99.90
71367;DHT22;60030;52.274;8.040;2022-08-03T02:32:50;21.50;99.90
71367;DHT22;60030;52.274;8.040;2022-08-03T02:35:20;21.40;99.90
71367;DHT22;60030;52.274;8.040;2022-08-03T02:37:52;21.40;99.90
71367;DHT22;60030;52.274;8.040;2022-08-03T02:40:22;21.30;99.90
71367;DHT22;60030;52.274;8.040;2022-08-03T02:42:53;21.30;99.90
71367;DHT22;60030;52.274;8.040;2022-08-03T02:45:23;21.30;99.90
71367;DHT22;60030;52.274;8.040;2022-08-03T02:47:57;21.30;99.90
71367;DHT22;60030;52.274;8.040;2022-08-03T02:50:26;21.30;99.90
71367;DHT22;60030;52.274;8.040;2022-08-03T02:52:56;21.30;99.90
71367;DHT22;60030;52.274;8.040;2022-08-03T02:55:25;21.30;99.90
71367;DHT22;60030;52.274;8.040;2022-08-03T02:57:53;21.30;99.90
71367;DHT22;60030;52.274;8.040;2022-08-03T03:00:21;21.30;99.90
71367;DHT22;60030;52.274;8.040;2022-08-03T03:02:50;21.20;99.90
71367;DHT22;60030;52.274;8.040;2022-08-03T03:05:19;21.20;99.90
71367;DHT22;60030;52.274;8.040;2022-08-03T03:07:46;21.20;99.90
71367;DHT22;60030;52.274;8.040;2022-08-03T03:10:14;21.20;99.90
71367;DHT22;60030;52.274;8.040;2022-08-03T03:12:42;21.10;99.90
71367;DHT22;60030;52.274;8.040;2022-08-03T03:15:10;21.10;99.90
71367;DHT22;60030;52.274;8.040;2022-08-03T03:17:38;21.20;99.90
71367;DHT22;60030;52.274;8.040;2022-08-03T03:20:07;21.10;99.90
71367;DHT22;60030;52.274;8.040;2022-08-03T03:22:37;21.10;99.90
71367;DHT22;60030;52.274;8.040;2022-08-03T03:25:05;21.10;99.90
71367;DHT22;60030;52.274;8.040;2022-08-03T03:27:33;21.00;99.90
71367;DHT22;60030;52.274;8.040;2022-08-03T03:30:00;21.00;99.90
71367;DHT22;60030;52.274;8.040;2022-08-03T03:32:28;21.00;99.90
71367;DHT22;60030;52.274;8.040;2022-08-03T03:34:55;21.00;99.90
71367;DHT22;60030;52.274;8.040;2022-08-03T03:37:24;21.00;99.90
71367;DHT22;60030;52.274;8.040;2022-08-03T03:39:53;21.00;99.90
71367;DHT22;60030;52.274;8.040;2022-08-03T03:42:21;21.00;99.90
71367;DHT22;60030;52.274;8.040;2022-08-03T03:44:48;20.90;99.90
71367;DHT22;60030;52.274;8.040;2022-08-03T03:47:15;21.00;99.90
71367;DHT22;60030;52.274;8.040;2022-08-03T03:49:43;20.90;99.90
71367;DHT22;60030;52.274;8.040;2022-08-03T03:52:10;20.90;99.90
71367;DHT22;60030;52.274;8.040;2022-08-03T03:54:41;20.90;99.90
71367;DHT22;60030;52.274;8.040;2022-08-03T03:57:10;20.90;99.90
71367;DHT22;60030;52.274;8.040;2022-08-03T03:59:38;20.90;99.90
71367;DHT22;60030;52.274;8.040;2022-08-03T04:02:05;20.90;99.90
71367;DHT22;60030;52.274;8.040;2022-08-03T04:04:32;20.90;99.90
71367;DHT22;60030;52.274;8.040;2022-08-03T04:07:18;20.90;99.90
71367;DHT22;60030;52.274;8.040;2022-08-03T04:10:06;20.90;99.90
71367;DHT22;60030;52.274;8.040;2022-08-03T04:12:56;20.90;99.90
71367;DHT22;60030;52.274;8.040;2022-08-03T04:15:25;20.90;99.90
71367;DHT22;60030;52.274;8.040;2022-08-03T04:17:56;20.90;99.90
71367;DHT22;60030;52.274;8.040;2022-08-03T04:20:27;20.90;99.90
71367;DHT22;60030;52.274;8.040;2022-08-03T04:22:55;20.90;99.90
71367;DHT22;60030;52.274;8.040;2022-08-03T04:25:26;20.90;99.90
71367;DHT22;60030;52.274;8.040;2022-08-03T04:27:56;20.90;99.90
71367;DHT22;60030;52.274;8.040;2022-08-03T04:30:26;20.90;99.90
71367;DHT22;60030;52.274;8.040;2022-08-03T04:32:54;20.90;99.90
71367;DHT22;60030;52.274;8.040;2022-08-03T04:35:23;20.90;99.90
71367;DHT22;60030;52.274;8.040;2022-08-03T04:37:51;20.90;99.90
71367;DHT22;60030;52.274;8.040;2022-08-03T04:40:24;20.90;99.90
71367;DHT22;60030;52.274;8.040;2022-08-03T04:42:55;21.00;99.90
71367;DHT22;60030;52.274;8.040;2022-08-03T04:45:24;21.00;99.90
71367;DHT22;60030;52.274;8.040;2022-08-03T04:47:53;21.00;99.90
71367;DHT22;60030;52.274;8.040;2022-08-03T04:50:21;21.00;99.90
71367;DHT22;60030;52.274;8.040;2022-08-03T04:53:04;21.00;99.90
71367;DHT22;60030;52.274;8.040;2022-08-03T04:55:33;21.10;99.90
71367;DHT22;60030;52.274;8.040;2022-08-03T04:58:02;21.10;99.90
71367;DHT22;60030;52.274;8.040;2022-08-03T05:00:30;21.10;99.90
71367;DHT22;60030;52.274;8.040;2022-08-03T05:02:58;21.10;99.90
71367;DHT22;60030;52.274;8.040;2022-08-03T05:05:25;21.20;99.90
71367;DHT22;60030;52.274;8.040;2022-08-03T05:07:52;21.20;99.90
71367;DHT22;60030;52.274;8.040;2022-08-03T05:10:19;21.20;99.90
71367;DHT22;60030;52.274;8.040;2022-08-03T05:12:47;21.30;99.90
71367;DHT22;60030;52.274;8.040;2022-08-03T05:15:17;21.30;99.90
71367;DHT22;60030;52.274;8.040;2022-08-03T05:17:45;21.30;99.90
71367;DHT22;60030;52.274;8.040;2022-08-03T05:20:12;21.30;99.90
71367;DHT22;60030;52.274;8.040;2022-08-03T05:22:39;21.40;99.90
71367;DHT22;60030;52.274;8.040;2022-08-03T05:25:06;21.40;99.90
71367;DHT22;60030;52.274;8.040;2022-08-03T05:27:33;21.40;99.90
71367;DHT22;60030;52.274;8.040;2022-08-03T05:30:00;21.40;99.90
71367;DHT22;60030;52.274;8.040;2022-08-03T05:32:29;21.50;99.90
71367;DHT22;60030;52.274;8.040;2022-08-03T05:34:56;21.50;99.90
71367;DHT22;60030;52.274;8.040;2022-08-03T05:37:23;21.50;99.90
71367;DHT22;60030;52.274;8.040;2022-08-03T05:39:50;21.60;99.90
71367;DHT22;60030;52.274;8.040;2022-08-03T05:42:17;21.60;99.90
71367;DHT22;60030;52.274;8.040;2022-08-03T05:44:44;21.60;99.90
71367;DHT22;60030;52.274;8.040;2022-08-03T05:47:11;21.60;99.90
71367;DHT22;60030;52.274;8.040;2022-08-03T05:49:39;21.60;99.90
71367;DHT22;60030;52.274;8.040;2022-08-03T05:52:07;21.70;99.90
71367;DHT22;60030;52.274;8.040;2022-08-03T05:54:34;21.80;99.90
71367;DHT22;60030;52.274;8.040;2022-08-03T05:57:01;21.80;99.90
71367;DHT22;60030;52.274;8.040;2022-08-03T05:59:28;21.80;99.90
71367;DHT22;60030;52.274;8.040;2022-08-03T06:01:55;21.90;99.90
71367;DHT22;60030;52.274;8.040;2022-08-03T06:04:22;22.00;99.90
71367;DHT22;60030;52.274;8.040;2022-08-03T06:06:50;22.00;99.90
71367;DHT22;60030;52.274;8.040;2022-08-03T06:09:17;22.00;99.90
71367;DHT22;60030;52.274;8.040;2022-08-03T06:11:44;22.10;99.90
71367;DHT22;60030;52.274;8.040;2022-08-03T06:14:11;22.10;99.90
71367;DHT22;60030;52.274;8.040;2022-08-03T06:16:39;22.20;99.90
71367;DHT22;60030;52.274;8.040;2022-08-03T06:19:06;22.20;99.90
71367;DHT22;60030;52.274;8.040;2022-08-03T06:21:33;22.20;99.90
71367;DHT22;60030;52.274;8.040;2022-08-03T06:24:01;22.30;99.90
71367;DHT22;60030;52.274;8.040;2022-08-03T06:26:29;22.30;99.90
71367;DHT22;60030;52.274;8.040;2022-08-03T06:28:56;22.30;99.90
71367;DHT22;60030;52.274;8.040;2022-08-03T06:31:24;22.30;99.90
71367;DHT22;60030;52.274;8.040;2022-08-03T06:33:54;22.40;99.90
71367;DHT22;60030;52.274;8.040;2022-08-03T06:36:21;22.50;99.90
71367;DHT22;60030;52.274;8.040;2022-08-03T06:38:48;22.50;99.90
71367;DHT22;60030;52.274;8.040;2022-08-03T06:41:17;22.50;99.90
71367;DHT22;60030;52.274;8.040;2022-08-03T06:43:44;22.50;99.90
71367;DHT22;60030;52.274;8.040;2022-08-03T06:46:11;22.60;99.90
71367;DHT22;60030;52.274;8.040;2022-08-03T06:48:38;22.60;99.90
71367;DHT22;60030;52.274;8.040;2022-08-03T06:51:05;22.70;99.90
71367;DHT22;60030;52.274;8.040;2022-08-03T06:53:32;22.80;99.90
71367;DHT22;60030;52.274;8.040;2022-08-03T06:55:59;22.80;99.90
71367;DHT22;60030;52.274;8.040;2022-08-03T06:58:28;22.90;99.90
71367;DHT22;60030;52.274;8.040;2022-08-03T07:00:55;22.90;99.90
71367;DHT22;60030;52.274;8.040;2022-08-03T07:03:22;23.00;99.90
71367;DHT22;60030;52.274;8.040;2022-08-03T07:05:49;23.00;99.90
71367;DHT22;60030;52.274;8.040;2022-08-03T07:08:17;23.10;99.90
71367;DHT22;60030;52.274;8.040;2022-08-03T07:10:44;23.10;99.90
71367;DHT22;60030;52.274;8.040;2022-08-03T07:13:11;23.20;99.90
71367;DHT22;60030;52.274;8.040;2022-08-03T07:15:40;23.30;99.90
71367;DHT22;60030;52.274;8.040;2022-08-03T07:18:07;23.40;99.90
71367;DHT22;60030;52.274;8.040;2022-08-03T07:20:34;23.40;99.90
71367;DHT22;60030;52.274;8.040;2022-08-03T07:23:01;23.50;99.90
71367;DHT22;60030;52.274;8.040;2022-08-03T07:25:28;23.60;99.90
71367;DHT22;60030;52.274;8.040;2022-08-03T07:27:55;23.60;99.90
71367;DHT22;60030;52.274;8.040;2022-08-03T07:30:22;23.70;99.90
71367;DHT22;60030;52.274;8.040;2022-08-03T07:32:51;23.80;99.90
71367;DHT22;60030;52.274;8.040;2022-08-03T07:35:18;23.80;99.90
71367;DHT22;60030;52.274;8.040;2022-08-03T07:37:45;23.80;99.90
71367;DHT22;60030;52.274;8.040;2022-08-03T07:40:12;23.90;99.90
71367;DHT22;60030;52.274;8.040;2022-08-03T07:42:39;23.90;99.90
71367;DHT22;60030;52.274;8.040;2022-08-03T07:45:08;24.00;99.90
71367;DHT22;60030;52.274;8.040;2022-08-03T07:47:35;24.10;99.90
71367;DHT22;60030;52.274;8.040;2022-08-03T07:50:05;24.10;99.90
71367;DHT22;60030;52.274;8.040;2022-08-03T07:52:32;24.30;99.90
71367;DHT22;60030;52.274;8.040;2022-08-03T07:55:15;24.40;99.90
71367;DHT22;60030;52.274;8.040;2022-08-03T07:57:42;24.40;99.90
71367;DHT22;60030;52.274;8.040;2022-08-03T08:00:13;24.40;99.90
71367;DHT22;60030;52.274;8.040;2022-08-03T08:02:41;24.60;99.90
71367;DHT22;60030;52.274;8.040;2022-08-03T08:05:10;24.60;99.90
71367;DHT22;60030;52.274;8.040;2022-08-03T08:07:37;24.60;99.90
71367;DHT22;60030;52.274;8.040;2022-08-03T08:10:06;24.70;99.90
71367;DHT22;60030;52.274;8.040;2022-08-03T08:12:34;24.70;99.90
71367;DHT22;60030;52.274;8.040;2022-08-03T08:15:02;24.80;99.90
71367;DHT22;60030;52.274;8.040;2022-08-03T08:17:29;25.00;99.90
71367;DHT22;60030;52.274;8.040;2022-08-03T08:19:56;25.20;99.90
71367;DHT22;60030;52.274;8.040;2022-08-03T08:22:24;25.00;99.90
71367;DHT22;60030;52.274;8.040;2022-08-03T08:24:51;24.90;99.90
71367;DHT22;60030;52.274;8.040;2022-08-03T08:27:18;25.00;99.90
71367;DHT22;60030;52.274;8.040;2022-08-03T08:29:45;25.20;99.90
71367;DHT22;60030;52.274;8.040;2022-08-03T08:32:13;25.20;99.90
71367;DHT22;60030;52.274;8.040;2022-08-03T08:34:41;25.30;99.90
71367;DHT22;60030;52.274;8.040;2022-08-03T08:37:08;25.50;99.90
71367;DHT22;60030;52.274;8.040;2022-08-03T08:39:36;25.30;99.90
71367;DHT22;60030;52.274;8.040;2022-08-03T08:42:03;25.50;99.90
71367;DHT22;60030;52.274;8.040;2022-08-03T08:44:30;25.70;99.90
71367;DHT22;60030;52.274;8.040;2022-08-03T08:47:01;25.80;99.90
71367;DHT22;60030;52.274;8.040;2022-08-03T08:49:29;25.80;99.90
71367;DHT22;60030;52.274;8.040;2022-08-03T08:51:58;25.80;99.90
71367;DHT22;60030;52.274;8.040;2022-08-03T08:54:27;25.70;99.90
71367;DHT22;60030;52.274;8.040;2022-08-03T08:57:01;25.70;99.90
71367;DHT22;60030;52.274;8.040;2022-08-03T08:59:31;25.90;99.90
71367;DHT22;60030;52.274;8.040;2022-08-03T09:01:59;25.90;99.90
71367;DHT22;60030;52.274;8.040;2022-08-03T09:04:27;25.90;99.90
71367;DHT22;60030;52.274;8.040;2022-08-03T09:06:54;26.00;99.90
71367;DHT22;60030;52.274;8.040;2022-08-03T09:09:22;25.90;99.90
71367;DHT22;60030;52.274;8.040;2022-08-03T09:11:49;26.10;99.90
71367;DHT22;60030;52.274;8.040;2022-08-03T09:14:18;26.20;99.90
71367;DHT22;60030;52.274;8.040;2022-08-03T09:16:55;26.10;99.90
71367;DHT22;60030;52.274;8.040;2022-08-03T09:19:25;26.30;99.90
71367;DHT22;60030;52.274;8.040;2022-08-03T09:22:07;26.50;99.90
71367;DHT22;60030;52.274;8.040;2022-08-03T09:24:34;26.70;99.90
71367;DHT22;60030;52.274;8.040;2022-08-03T09:27:03;26.80;99.90
71367;DHT22;60030;52.274;8.040;2022-08-03T09:29:32;26.80;99.90
71367;DHT22;60030;52.274;8.040;2022-08-03T09:32:02;26.90;99.90
71367;DHT22;60030;52.274;8.040;2022-08-03T09:34:29;26.80;99.90
71367;DHT22;60030;52.274;8.040;2022-08-03T09:36:56;26.80;99.90
71367;DHT22;60030;52.274;8.040;2022-08-03T09:39:25;26.70;99.90
71367;DHT22;60030;52.274;8.040;2022-08-03T09:42:07;26.90;99.90
71367;DHT22;60030;52.274;8.040;2022-08-03T09:44:36;26.90;99.90
71367;DHT22;60030;52.274;8.040;2022-08-03T09:47:04;27.00;99.90
71367;DHT22;60030;52.274;8.040;2022-08-03T09:49:32;26.90;99.90
71367;DHT22;60030;52.274;8.040;2022-08-03T09:52:01;26.80;99.90
71367;DHT22;60030;52.274;8.040;2022-08-03T09:54:37;26.80;99.90
71367;DHT22;60030;52.274;8.040;2022-08-03T09:57:04;27.00;99.90
71367;DHT22;60030;52.274;8.040;2022-08-03T09:59:32;27.00;99.90
71367;DHT22;60030;52.274;8.040;2022-08-03T10:02:01;27.20;99.90
71367;DHT22;60030;52.274;8.040;2022-08-03T10:04:28;27.10;99.90
71367;DHT22;60030;52.274;8.040;2022-08-03T10:07:04;27.00;99.90
71367;DHT22;60030;52.274;8.040;2022-08-03T10:09:31;27.00;99.90
71367;DHT22;60030;52.274;8.040;2022-08-03T10:12:07;27.20;99.90
71367;DHT22;60030;52.274;8.040;2022-08-03T10:14:36;27.30;99.90
71367;DHT22;60030;52.274;8.040;2022-08-03T10:17:05;27.50;99.90
71367;DHT22;60030;52.274;8.040;2022-08-03T10:19:32;27.50;99.90
71367;DHT22;60030;52.274;8.040;2022-08-03T10:22:02;27.40;99.90
71367;DHT22;60030;52.274;8.040;2022-08-03T10:24:33;27.50;99.90
71367;DHT22;60030;52.274;8.040;2022-08-03T10:27:03;27.50;99.80
71367;DHT22;60030;52.274;8.040;2022-08-03T10:29:37;27.60;99.70
71367;DHT22;60030;52.274;8.040;2022-08-03T10:32:09;27.60;99.00
71367;DHT22;60030;52.274;8.040;2022-08-03T10:34:41;27.60;98.90
71367;DHT22;60030;52.274;8.040;2022-08-03T10:37:10;27.60;98.70
71367;DHT22;60030;52.274;8.040;2022-08-03T10:39:39;27.50;99.00
71367;DHT22;60030;52.274;8.040;2022-08-03T10:42:20;27.60;99.40
71367;DHT22;60030;52.274;8.040;2022-08-03T10:44:54;27.50;98.60
71367;DHT22;60030;52.274;8.040;2022-08-03T10:47:23;27.50;98.90
71367;DHT22;60030;52.274;8.040;2022-08-03T10:49:51;27.40;98.80
71367;DHT22;60030;52.274;8.040;2022-08-03T10:52:18;27.60;98.90
71367;DHT22;60030;52.274;8.040;2022-08-03T10:54:45;27.70;98.70
71367;DHT22;60030;52.274;8.040;2022-08-03T10:57:45;27.60;98.90
71367;DHT22;60030;52.274;8.040;2022-08-03T11:00:14;27.60;98.10
71367;DHT22;60030;52.274;8.040;2022-08-03T11:03:07;27.70;97.90
71367;DHT22;60030;52.274;8.040;2022-08-03T11:05:37;27.70;97.70
71367;DHT22;60030;52.274;8.040;2022-08-03T11:08:25;27.80;98.10
71367;DHT22;60030;52.274;8.040;2022-08-03T11:10:54;28.00;97.00
71367;DHT22;60030;52.274;8.040;2022-08-03T11:13:23;28.30;97.30
71367;DHT22;60030;52.274;8.040;2022-08-03T11:15:53;28.20;96.70
71367;DHT22;60030;52.274;8.040;2022-08-03T11:18:22;28.50;96.70
71367;DHT22;60030;52.274;8.040;2022-08-03T11:20:51;29.00;95.70
71367;DHT22;60030;52.274;8.040;2022-08-03T11:23:40;28.90;95.20
71367;DHT22;60030;52.274;8.040;2022-08-03T11:26:08;28.50;95.80
71367;DHT22;60030;52.274;8.040;2022-08-03T11:28:36;28.70;95.80
71367;DHT22;60030;52.274;8.040;2022-08-03T11:31:45;29.00;95.00
71367;DHT22;60030;52.274;8.040;2022-08-03T11:34:15;29.40;94.60
71367;DHT22;60030;52.274;8.040;2022-08-03T11:37:17;29.50;94.00
71367;DHT22;60030;52.274;8.040;2022-08-03T11:39:45;29.60;93.20
71367;DHT22;60030;52.274;8.040;2022-08-03T11:42:40;30.20;93.10
71367;DHT22;60030;52.274;8.040;2022-08-03T11:45:10;30.40;92.40
71367;DHT22;60030;52.274;8.040;2022-08-03T11:47:40;30.50;91.40
71367;DHT22;60030;52.274;8.040;2022-08-03T11:50:10;30.70;90.80
71367;DHT22;60030;52.274;8.040;2022-08-03T11:52:39;30.90;90.10
71367;DHT22;60030;52.274;8.040;2022-08-03T11:55:16;30.90;89.10
71367;DHT22;60030;52.274;8.040;2022-08-03T11:57:43;31.10;88.40
71367;DHT22;60030;52.274;8.040;2022-08-03T12:00:20;31.20;87.20
71367;DHT22;60030;52.274;8.040;2022-08-03T12:02:54;31.30;84.50
71367;DHT22;60030;52.274;8.040;2022-08-03T12:05:34;31.50;83.60
71367;DHT22;60030;52.274;8.040;2022-08-03T12:08:01;31.50;82.80
71367;DHT22;60030;52.274;8.040;2022-08-03T12:10:28;31.80;81.60
71367;DHT22;60030;52.274;8.040;2022-08-03T12:12:56;31.70;80.60
71367;DHT22;60030;52.274;8.040;2022-08-03T12:15:24;31.80;79.20
71367;DHT22;60030;52.274;8.040;2022-08-03T12:17:52;31.90;78.60
71367;DHT22;60030;52.274;8.040;2022-08-03T12:20:22;32.10;76.80
71367;DHT22;60030;52.274;8.040;2022-08-03T12:22:51;32.20;77.60
71367;DHT22;60030;52.274;8.040;2022-08-03T12:25:22;32.30;75.10
71367;DHT22;60030;52.274;8.040;2022-08-03T12:27:50;32.30;75.50
71367;DHT22;60030;52.274;8.040;2022-08-03T12:30:18;32.40;75.10
71367;DHT22;60030;52.274;8.040;2022-08-03T12:32:45;32.50;72.50
71367;DHT22;60030;52.274;8.040;2022-08-03T12:35:21;32.60;72.30
71367;DHT22;60030;52.274;8.040;2022-08-03T12:37:51;32.70;70.00
71367;DHT22;60030;52.274;8.040;2022-08-03T12:40:24;32.70;68.60
71367;DHT22;60030;52.274;8.040;2022-08-03T12:42:52;32.90;68.90
71367;DHT22;60030;52.274;8.040;2022-08-03T12:45:20;33.10;68.40
71367;DHT22;60030;52.274;8.040;2022-08-03T12:47:49;32.90;67.90
71367;DHT22;60030;52.274;8.040;2022-08-03T12:50:23;32.70;68.40
71367;DHT22;60030;52.274;8.040;2022-08-03T12:52:53;32.90;69.60
71367;DHT22;60030;52.274;8.040;2022-08-03T12:55:21;33.40;68.50
71367;DHT22;60030;52.274;8.040;2022-08-03T12:57:48;33.40;67.40
71367;DHT22;60030;52.274;8.040;2022-08-03T13:00:18;33.70;66.80
71367;DHT22;60030;52.274;8.040;2022-08-03T13:02:45;34.00;65.90
71367;DHT22;60030;52.274;8.040;2022-08-03T13:05:24;34.20;64.90
71367;DHT22;60030;52.274;8.040;2022-08-03T13:07:52;34.70;63.30
71367;DHT22;60030;52.274;8.040;2022-08-03T13:10:27;35.40;60.30
71367;DHT22;60030;52.274;8.040;2022-08-03T13:12:54;36.10;58.20
71367;DHT22;60030;52.274;8.040;2022-08-03T13:15:25;37.00;56.90
71367;DHT22;60030;52.274;8.040;2022-08-03T13:17:54;37.30;54.50
71367;DHT22;60030;52.274;8.040;2022-08-03T13:20:22;37.90;53.80
71367;DHT22;60030;52.274;8.040;2022-08-03T13:22:49;38.20;51.90
71367;DHT22;60030;52.274;8.040;2022-08-03T13:25:18;38.50;51.30
71367;DHT22;60030;52.274;8.040;2022-08-03T13:27:45;38.80;50.40
71367;DHT22;60030;52.274;8.040;2022-08-03T13:30:13;38.60;50.00
71367;DHT22;60030;52.274;8.040;2022-08-03T13:32:41;39.20;49.70
71367;DHT22;60030;52.274;8.040;2022-08-03T13:35:08;39.30;48.60
71367;DHT22;60030;52.274;8.040;2022-08-03T13:37:36;39.40;47.60
71367;DHT22;60030;52.274;8.040;2022-08-03T13:40:06;39.00;47.50
71367;DHT22;60030;52.274;8.040;2022-08-03T13:42:35;38.80;47.30
71367;DHT22;60030;52.274;8.040;2022-08-03T13:45:03;39.20;46.60
71367;DHT22;60030;52.274;8.040;2022-08-03T13:47:31;39.60;46.00
71367;DHT22;60030;52.274;8.040;2022-08-03T13:49:58;40.10;46.00
71367;DHT22;60030;52.274;8.040;2022-08-03T13:52:25;40.00;44.30
71367;DHT22;60030;52.274;8.040;2022-08-03T13:54:52;40.10;44.60
71367;DHT22;60030;52.274;8.040;2022-08-03T13:57:20;39.90;45.10
71367;DHT22;60030;52.274;8.040;2022-08-03T13:59:48;39.80;44.60
71367;DHT22;60030;52.274;8.040;2022-08-03T14:02:15;39.30;45.20
71367;DHT22;60030;52.274;8.040;2022-08-03T14:04:42;39.40;44.60
71367;DHT22;60030;52.274;8.040;2022-08-03T14:07:09;38.60;44.30
71367;DHT22;60030;52.274;8.040;2022-08-03T14:09:39;37.40;47.60
71367;DHT22;60030;52.274;8.040;2022-08-03T14:12:06;37.50;47.90
71367;DHT22;60030;52.274;8.040;2022-08-03T14:14:34;37.70;46.70
71367;DHT22;60030;52.274;8.040;2022-08-03T14:17:03;36.80;48.50
71367;DHT22;60030;52.274;8.040;2022-08-03T14:19:30;38.10;47.10
71367;DHT22;60030;52.274;8.040;2022-08-03T14:21:58;38.80;46.00
71367;DHT22;60030;52.274;8.040;2022-08-03T14:24:25;38.40;46.10
71367;DHT22;60030;52.274;8.040;2022-08-03T14:26:52;38.20;45.50
71367;DHT22;60030;52.274;8.040;2022-08-03T14:29:19;38.70;44.40
71367;DHT22;60030;52.274;8.040;2022-08-03T14:31:46;39.40;43.20
71367;DHT22;60030;52.274;8.040;2022-08-03T14:34:15;38.40;44.10
71367;DHT22;60030;52.274;8.040;2022-08-03T14:36:42;37.70;45.60
71367;DHT22;60030;52.274;8.040;2022-08-03T14:39:09;37.60;46.20
71367;DHT22;60030;52.274;8.040;2022-08-03T14:41:36;37.30;45.70
71367;DHT22;60030;52.274;8.040;2022-08-03T14:44:03;37.00;46.90
71367;DHT22;60030;52.274;8.040;2022-08-03T14:46:31;36.50;47.50
71367;DHT22;60030;52.274;8.040;2022-08-03T14:48:58;36.40;47.70
71367;DHT22;60030;52.274;8.040;2022-08-03T14:51:26;36.10;47.80
71367;DHT22;60030;52.274;8.040;2022-08-03T14:53:54;35.90;48.20
71367;DHT22;60030;52.274;8.040;2022-08-03T14:56:21;35.70;48.90
71367;DHT22;60030;52.274;8.040;2022-08-03T14:58:49;35.60;48.90
71367;DHT22;60030;52.274;8.040;2022-08-03T15:01:16;35.20;49.40
71367;DHT22;60030;52.274;8.040;2022-08-03T15:03:43;35.40;49.70
71367;DHT22;60030;52.274;8.040;2022-08-03T15:06:11;35.20;50.40
71367;DHT22;60030;52.274;8.040;2022-08-03T15:08:39;35.00;50.20
71367;DHT22;60030;52.274;8.040;2022-08-03T15:11:06;35.00;50.60
71367;DHT22;60030;52.274;8.040;2022-08-03T15:13:34;35.50;50.30
71367;DHT22;60030;52.274;8.040;2022-08-03T15:16:01;36.20;48.90
71367;DHT22;60030;52.274;8.040;2022-08-03T15:18:28;37.20;46.80
71367;DHT22;60030;52.274;8.040;2022-08-03T15:20:55;37.50;46.50
71367;DHT22;60030;52.274;8.040;2022-08-03T15:23:22;38.10;45.80
71367;DHT22;60030;52.274;8.040;2022-08-03T15:25:50;38.60;44.90
71367;DHT22;60030;52.274;8.040;2022-08-03T15:28:17;38.70;43.30
71367;DHT22;60030;52.274;8.040;2022-08-03T15:30:45;38.50;44.00
71367;DHT22;60030;52.274;8.040;2022-08-03T15:33:12;38.10;44.20
71367;DHT22;60030;52.274;8.040;2022-08-03T15:35:39;37.50;45.00
71367;DHT22;60030;52.274;8.040;2022-08-03T15:38:06;36.90;46.20
71367;DHT22;60030;52.274;8.040;2022-08-03T15:40:33;36.60;46.50
71367;DHT22;60030;52.274;8.040;2022-08-03T15:43:02;36.20;47.60